Weather at Thargomindah Airport

Public forecast

Using degrees Celsius for public forecast. Weather courtesy of forecast.io.

Closest aviation weather report (METAR) to Thargomindah Airport

Closest report is Charleville Airport, 161.4 nm (298.9 km) NE. Retrieved 2021/06/19 21:00 UTC (59 minutes ago):

YBCV 192100Z AUTO 00000KT 9999 // NCD 02/01 Q1021

Closest aviation forecast (TAF) to Thargomindah Airport

Forecast is more than 12 hours old.

Closest forecast is Woomera Airfield, 411.4 nm (761.9 km) WSW. Retrieved 2021/06/19 06:00 UTC (16 hours ago):

TAF YPWR 190529Z 1906/2000 17010KT 9999 BKN040 FM191600 13008KT 9999 FEW008 SCT045 FM192000 09005KT 9999 SCT005 SCT045 PROB30 1920/2000 0300 FG BKN001